Airfield :
LOGIN :

Register | Disclaimer

   EN    FR    IT 

 










Legend :    VFR   Marginal VFR   IFR   Intensive IFR   Very Intensive IFR
Visi :
Ceiling :
>= 8 km
>= 3000ft
5 to 8 km
1000 to 3000 ft
1500m to 5 km
500 to 1000 ft
800 to 1500m
200 to 500 ft
< 800m
< 200 ft
Symbols :   Thunderstorms  Fog  Heavy snow  Heavy precipitations  Wind > 20 kt
SIGMETs :     Misc.  Thunderstorms  Icing  Turbulence  Mountain Waves  Volcanic Ashes






- Airport Elevation : 171 ft
- IATA code : EGC


LFBE - Bergerac

CURRENT METAR :
  • 271800Z AUTO 29013KT CAVOK 10/06 Q1016 NOSIG

EXPIRED METARs :
  • 271730Z AUTO 29018KT 9999 FEW024 11/07 Q1015 NOSIG
  • 271700Z AUTO 29016KT 9999 FEW026 12/08 Q1014 NOSIG
  • 271630Z AUTO 29020KT 9999 FEW020 SCT035 BKN070 12/08 Q1014 NOSIG
  • 271600Z AUTO 29017KT 9999 SCT015/// BKN021/// BKN046/// ///TCU 13/11 Q1013 BECMG BKN020
  • 271530Z AUTO 27020KT 3500 -RA BR BKN012/// BKN017/// OVC022/// ///TCU 13/11 Q1012 BECMG 9999 NSW BKN020

TAF TAF LFBE
Valid from the 27 at 18:00 until the 28 at 18:00 UTC


271700Z 2718/2818 29012KT 9999 SCT026
BECMG 2720/2722 VRB02KT
BECMG 2800/2803 12005KT
PROB40 2803/2807 0500 FG
FM280700 12005KT 6000 BKN008
TEMPO 2807/2814 2000 -DZ OVC005
TEMPO 2814/2818 BKN016



MET'MAP, your aeronautical weather chart ! - Copyright ORBIFLY December 2007 - Disclaimer

ORBIFLY MET'MAP TEAM :

Programming & Development : Alexandra Zaïnal
Concept & original design : Baudouin d'Aumeries
Assistance for programming : Marc-Olivier Méhu
Technical & hardware support : Manuel Goepfert

Contact : metmap@orbifly.com




SOURCES & CREDITS :

   NOAA